金門航空站 - ATIS

METAR RCBS 170430Z 02015KT 350V060 9999 FEW020 SCT220 35/24 Q1001 NOSIG RMK A2958(F)=

站台狀態:Online
最後更新:2019-07-17 13:00:02